Afton, Minnesota
Current Conditions -  °F | °C
As of 7:31 PM on Tuesday 27 Jan 2015 (Local Time) from K21D Reporting Station
Overcast Overcast  
Wind Chill: 26°   Ceiling: 1600
Heat Index: 32°   Visibility: 10mi
Dew Point: 27°   Wind: 6mph
Humidity: 80%   Direction: 130°SE
Pressure: 30.16"   Gusts: NA
Location:  44.9°N, 92.78°W
Report Text: K21D 280131Z AUTO 13005KT 10SM OVC016 00/M03 A3016 RMK AO2
Loading
Personal Weather Stations






























Interactive Weather Map New forecast layout! Learn more

10-Day Weather Forecast

Advertisements
Track Severe Weather on mobile